createdAt,value
2019-03-05T00:00:42.834Z,981.94
2019-03-05T00:01:42.823Z,981.94
2019-03-05T00:02:42.839Z,981.97
2019-03-05T00:03:42.802Z,981.95
2019-03-05T00:04:42.790Z,981.94
2019-03-05T00:05:42.783Z,981.70
2019-03-05T00:06:42.769Z,981.90
2019-03-05T00:07:42.803Z,981.95
2019-03-05T00:08:42.751Z,981.95
2019-03-05T00:09:42.744Z,982.00
2019-03-05T00:10:42.730Z,981.97
2019-03-05T00:11:42.721Z,982.06
2019-03-05T00:12:42.734Z,982.03
2019-03-05T00:13:42.697Z,981.88
2019-03-05T00:14:42.690Z,981.89
2019-03-05T00:15:42.681Z,981.88
2019-03-05T00:16:42.668Z,981.96
2019-03-05T00:17:42.680Z,982.01
2019-03-05T00:18:42.645Z,982.09
2019-03-05T00:19:42.636Z,982.05
2019-03-05T00:20:42.625Z,982.01
2019-03-05T00:21:42.616Z,981.97
2019-03-05T00:22:42.625Z,981.95
2019-03-05T00:23:42.601Z,981.93
2019-03-05T00:24:42.591Z,981.93
2019-03-05T00:25:42.576Z,981.93
2019-03-05T00:26:42.563Z,981.93
2019-03-05T00:27:42.575Z,981.96
2019-03-05T00:28:42.543Z,981.98
2019-03-05T00:29:42.531Z,981.91
2019-03-05T00:30:42.521Z,981.94
2019-03-05T00:31:42.515Z,981.97
2019-03-05T00:32:42.525Z,981.88
2019-03-05T00:33:42.492Z,981.90
2019-03-05T00:34:42.479Z,982.04
2019-03-05T00:35:42.469Z,982.08
2019-03-05T00:36:42.460Z,982.01
2019-03-05T00:37:42.471Z,982.01
2019-03-05T00:38:42.442Z,982.05
2019-03-05T00:39:42.428Z,982.14
2019-03-05T00:40:42.421Z,982.07
2019-03-05T00:41:42.407Z,981.98
2019-03-05T00:42:42.419Z,982.14
2019-03-05T00:43:42.390Z,982.06
2019-03-05T00:44:42.375Z,982.16
2019-03-05T00:45:42.378Z,982.07
2019-03-05T00:46:42.355Z,982.13
2019-03-05T00:47:42.366Z,982.16
2019-03-05T00:48:42.339Z,982.11
2019-03-05T00:49:42.327Z,982.15
2019-03-05T00:50:42.312Z,982.16
2019-03-05T00:51:42.303Z,982.17
2019-03-05T00:52:42.375Z,982.19
2019-03-05T00:53:42.285Z,982.15
2019-03-05T00:54:42.271Z,982.20
2019-03-05T00:55:42.263Z,982.18
2019-03-05T00:56:42.250Z,982.17
2019-03-05T00:57:42.241Z,982.14
2019-03-05T00:58:42.256Z,982.20
2019-03-05T00:59:42.295Z,982.20
2019-03-05T01:00:42.210Z,982.15
2019-03-05T01:01:42.203Z,982.15
2019-03-05T01:02:42.188Z,982.13
2019-03-05T01:03:42.202Z,982.05
2019-03-05T01:04:42.170Z,982.23
2019-03-05T01:05:42.160Z,982.08
2019-03-05T01:06:42.154Z,982.28
2019-03-05T01:07:42.145Z,982.09
2019-03-05T01:08:42.153Z,982.10
2019-03-05T01:09:42.115Z,982.20
2019-03-05T01:10:42.107Z,982.23
2019-03-05T01:11:42.095Z,982.22
2019-03-05T01:12:42.087Z,982.11
2019-03-05T01:13:42.099Z,982.27
2019-03-05T01:14:42.065Z,982.24
2019-03-05T01:15:42.055Z,982.29
2019-03-05T01:16:42.045Z,982.25
2019-03-05T01:17:42.034Z,982.23
2019-03-05T01:18:42.047Z,982.25
2019-03-05T01:19:42.011Z,982.33
2019-03-05T01:20:42.001Z,982.24
2019-03-05T01:21:41.990Z,982.26
2019-03-05T01:22:41.981Z,982.26
2019-03-05T01:23:41.994Z,982.15
2019-03-05T01:24:41.971Z,982.35
2019-03-05T01:25:41.952Z,982.37
2019-03-05T01:26:41.939Z,982.47
2019-03-05T01:27:41.928Z,982.23
2019-03-05T01:28:41.952Z,982.21
2019-03-05T01:29:41.911Z,982.29
2019-03-05T01:30:41.903Z,982.26
2019-03-05T01:31:41.888Z,982.29
2019-03-05T01:32:41.876Z,982.28
2019-03-05T01:33:41.870Z,982.22
2019-03-05T01:34:41.879Z,982.28
2019-03-05T01:35:41.852Z,982.33
2019-03-05T01:36:41.843Z,982.22
2019-03-05T01:37:41.824Z,982.20
2019-03-05T01:38:41.819Z,982.23
2019-03-05T01:39:41.826Z,981.92
2019-03-05T01:40:41.801Z,982.34
2019-03-05T01:41:41.785Z,982.19
2019-03-05T01:42:41.773Z,982.32
2019-03-05T01:43:41.770Z,982.15
2019-03-05T01:44:41.775Z,982.28
2019-03-05T01:45:41.741Z,982.28
2019-03-05T01:46:41.732Z,982.17
2019-03-05T01:47:41.724Z,982.23
2019-03-05T01:48:41.717Z,982.21
2019-03-05T01:49:41.722Z,982.22
2019-03-05T01:50:41.689Z,982.32
2019-03-05T01:51:41.679Z,982.34
2019-03-05T01:52:41.667Z,982.31
2019-03-05T01:53:41.678Z,982.31
2019-03-05T01:54:41.681Z,982.27
2019-03-05T01:55:41.637Z,982.52
2019-03-05T01:56:41.627Z,982.55
2019-03-05T01:57:41.618Z,982.44
2019-03-05T01:58:41.608Z,982.49
2019-03-05T01:59:41.596Z,982.51
2019-03-05T02:00:41.609Z,982.42
2019-03-05T02:01:41.574Z,982.71
2019-03-05T02:02:41.570Z,982.53
2019-03-05T02:03:41.553Z,982.60
2019-03-05T02:04:41.545Z,982.65
2019-03-05T02:05:41.557Z,982.57
2019-03-05T02:06:41.525Z,982.63
2019-03-05T02:07:41.514Z,982.40
2019-03-05T02:08:41.505Z,982.74
2019-03-05T02:09:41.492Z,982.64
2019-03-05T02:10:41.503Z,982.63
2019-03-05T02:11:41.471Z,982.64
2019-03-05T02:12:41.463Z,982.69
2019-03-05T02:13:41.453Z,982.64
2019-03-05T02:14:41.441Z,982.54
2019-03-05T02:15:41.455Z,982.59
2019-03-05T02:16:41.421Z,982.70
2019-03-05T02:17:41.409Z,982.58
2019-03-05T02:18:41.398Z,982.38
2019-03-05T02:19:41.388Z,982.60
2019-03-05T02:20:41.400Z,982.52
2019-03-05T02:21:41.367Z,982.46
2019-03-05T02:22:41.360Z,982.65
2019-03-05T02:23:41.346Z,982.47
2019-03-05T02:24:41.336Z,982.49
2019-03-05T02:25:41.347Z,982.66
2019-03-05T02:26:41.318Z,982.58
2019-03-05T02:27:41.309Z,982.55
2019-03-05T02:28:41.303Z,982.61
2019-03-05T02:29:41.284Z,982.65
2019-03-05T02:30:41.310Z,982.67
2019-03-05T02:31:41.266Z,982.71
2019-03-05T02:32:41.261Z,982.63
2019-03-05T02:33:41.248Z,982.64
2019-03-05T02:34:41.246Z,982.59
2019-03-05T02:35:41.222Z,982.69
2019-03-05T02:36:41.237Z,982.70
2019-03-05T02:37:41.205Z,982.72
2019-03-05T02:38:41.192Z,982.69
2019-03-05T02:39:41.183Z,982.65
2019-03-05T02:40:41.187Z,982.67
2019-03-05T02:41:41.183Z,982.66
2019-03-05T02:42:41.168Z,982.67
2019-03-05T02:43:41.159Z,982.55
2019-03-05T02:44:41.137Z,982.72
2019-03-05T02:45:41.123Z,982.64
2019-03-05T02:46:41.133Z,982.58
2019-03-05T02:47:41.099Z,982.59
2019-03-05T02:48:41.088Z,982.61
2019-03-05T02:49:41.078Z,982.56
2019-03-05T02:50:41.073Z,982.63
2019-03-05T02:51:41.097Z,982.55
2019-03-05T02:52:41.046Z,982.60
2019-03-05T02:53:41.040Z,982.64
2019-03-05T02:54:41.044Z,982.42
2019-03-05T02:55:41.014Z,982.55
2019-03-05T02:56:41.033Z,982.53
2019-03-05T02:57:41.020Z,982.61
2019-03-05T02:58:40.985Z,982.58
2019-03-05T02:59:40.974Z,982.58
2019-03-05T03:00:40.966Z,982.56
2019-03-05T03:01:40.954Z,982.61
2019-03-05T03:02:40.967Z,982.67
2019-03-05T03:03:40.933Z,982.66
2019-03-05T03:04:40.928Z,982.60
2019-03-05T03:05:40.915Z,982.70
2019-03-05T03:06:40.905Z,982.65
2019-03-05T03:07:40.912Z,982.64
2019-03-05T03:08:40.881Z,982.61
2019-03-05T03:09:40.869Z,982.62
2019-03-05T03:10:40.861Z,982.70
2019-03-05T03:11:40.854Z,982.59
2019-03-05T03:12:40.863Z,982.72
2019-03-05T03:13:40.836Z,982.69
2019-03-05T03:14:40.825Z,982.57
2019-03-05T03:15:40.808Z,982.64
2019-03-05T03:16:40.800Z,982.62
2019-03-05T03:17:40.812Z,982.63
2019-03-05T03:18:40.780Z,982.68
2019-03-05T03:19:40.769Z,982.69
2019-03-05T03:20:40.756Z,982.68
2019-03-05T03:21:40.745Z,982.63
2019-03-05T03:22:40.762Z,982.65
2019-03-05T03:23:40.727Z,982.67
2019-03-05T03:24:40.716Z,982.65
2019-03-05T03:25:40.709Z,982.61
2019-03-05T03:26:40.693Z,982.56
2019-03-05T03:27:40.717Z,982.60
2019-03-05T03:28:40.673Z,982.61
2019-03-05T03:29:40.663Z,982.56
2019-03-05T03:30:40.660Z,982.64
2019-03-05T03:31:40.790Z,982.63
2019-03-05T03:32:40.633Z,982.60
2019-03-05T03:33:40.645Z,982.65
2019-03-05T03:34:40.611Z,982.57
2019-03-05T03:35:40.599Z,982.66
2019-03-05T03:36:40.596Z,982.63
2019-03-05T03:37:40.580Z,982.60
2019-03-05T03:38:40.592Z,982.55
2019-03-05T03:39:40.558Z,982.61
2019-03-05T03:40:40.548Z,982.43
2019-03-05T03:41:40.545Z,982.58
2019-03-05T03:42:40.530Z,982.61
2019-03-05T03:43:40.538Z,982.65
2019-03-05T03:44:40.522Z,982.66
2019-03-05T03:45:40.494Z,982.69
2019-03-05T03:46:40.490Z,982.77
2019-03-05T03:47:40.472Z,982.63
2019-03-05T03:48:40.484Z,982.74
2019-03-05T03:49:40.453Z,982.63
2019-03-05T03:50:40.442Z,982.65
2019-03-05T03:51:40.438Z,982.66
2019-03-05T03:52:40.424Z,982.63
2019-03-05T03:53:40.437Z,982.67
2019-03-05T03:54:40.401Z,982.76
2019-03-05T03:55:40.391Z,982.84
2019-03-05T03:56:40.380Z,982.85
2019-03-05T03:57:40.374Z,982.82
2019-03-05T03:58:40.385Z,982.75
2019-03-05T03:59:40.354Z,982.75
2019-03-05T04:00:40.339Z,982.85
2019-03-05T04:01:40.328Z,982.74
2019-03-05T04:02:40.317Z,982.80
2019-03-05T04:03:40.334Z,982.83
2019-03-05T04:04:40.299Z,982.82
2019-03-05T04:05:40.292Z,982.85
2019-03-05T04:06:40.284Z,982.88
2019-03-05T04:07:40.273Z,982.81
2019-03-05T04:08:40.278Z,982.84
2019-03-05T04:09:40.316Z,982.81
2019-03-05T04:10:40.235Z,982.91
2019-03-05T04:11:40.231Z,982.83
2019-03-05T04:12:40.215Z,982.93
2019-03-05T04:13:40.231Z,982.72
2019-03-05T04:14:40.195Z,982.96
2019-03-05T04:15:40.198Z,982.80
2019-03-05T04:16:40.181Z,982.71
2019-03-05T04:17:40.165Z,982.81
2019-03-05T04:18:40.180Z,982.84
2019-03-05T04:19:40.140Z,982.82
2019-03-05T04:20:40.130Z,982.76
2019-03-05T04:21:40.128Z,982.76
2019-03-05T04:22:40.110Z,982.76
2019-03-05T04:23:40.335Z,982.81
2019-03-05T04:24:40.089Z,982.87
2019-03-05T04:25:40.078Z,982.74
2019-03-05T04:26:40.067Z,982.70
2019-03-05T04:27:40.067Z,982.90
2019-03-05T04:28:40.054Z,982.89
2019-03-05T04:29:40.058Z,982.79
2019-03-05T04:30:40.034Z,982.78
2019-03-05T04:31:40.015Z,982.73
2019-03-05T04:32:40.013Z,982.72
2019-03-05T04:33:39.998Z,982.80
2019-03-05T04:34:40.010Z,982.73
2019-03-05T04:35:39.975Z,982.70
2019-03-05T04:36:39.964Z,982.79
2019-03-05T04:37:39.956Z,982.79
2019-03-05T04:38:39.943Z,982.77
2019-03-05T04:39:39.959Z,982.83
2019-03-05T04:40:39.921Z,982.79
2019-03-05T04:41:39.913Z,982.80
2019-03-05T04:42:39.903Z,982.82
2019-03-05T04:43:39.893Z,982.84
2019-03-05T04:44:39.901Z,982.85
2019-03-05T04:45:39.871Z,982.79
2019-03-05T04:46:39.862Z,982.86
2019-03-05T04:47:39.850Z,982.88
2019-03-05T04:48:39.838Z,982.84
2019-03-05T04:49:39.851Z,982.86
2019-03-05T04:50:39.819Z,982.89
2019-03-05T04:51:39.808Z,982.96
2019-03-05T04:52:39.862Z,982.85
2019-03-05T04:53:39.787Z,982.80
2019-03-05T04:54:39.805Z,982.79
2019-03-05T04:55:39.766Z,982.81
2019-03-05T04:56:39.757Z,982.75
2019-03-05T04:57:39.745Z,982.80
2019-03-05T04:58:39.739Z,982.79
2019-03-05T04:59:39.725Z,982.80
2019-03-05T05:00:39.735Z,982.78
2019-03-05T05:01:39.707Z,982.72
2019-03-05T05:02:39.692Z,982.78
2019-03-05T05:03:39.686Z,982.77
2019-03-05T05:04:39.672Z,982.56
2019-03-05T05:05:39.688Z,982.79
2019-03-05T05:06:39.652Z,982.73
2019-03-05T05:07:39.642Z,982.67
2019-03-05T05:08:39.630Z,982.73
2019-03-05T05:09:39.620Z,982.64
2019-03-05T05:10:39.635Z,982.66
2019-03-05T05:11:39.601Z,982.80
2019-03-05T05:12:39.587Z,982.59
2019-03-05T05:13:39.578Z,982.74
2019-03-05T05:14:39.568Z,982.76
2019-03-05T05:15:39.578Z,982.68
2019-03-05T05:16:39.547Z,982.63
2019-03-05T05:17:39.541Z,982.77
2019-03-05T05:18:39.525Z,982.64
2019-03-05T05:19:39.515Z,982.66
2019-03-05T05:20:39.529Z,982.70
2019-03-05T05:21:39.497Z,982.75
2019-03-05T05:22:39.484Z,982.67
2019-03-05T05:23:39.481Z,982.63
2019-03-05T05:24:39.463Z,982.69
2019-03-05T05:25:39.476Z,982.64
2019-03-05T05:26:39.447Z,982.70
2019-03-05T05:27:39.437Z,982.71
2019-03-05T05:28:39.425Z,982.81
2019-03-05T05:29:39.417Z,982.67
2019-03-05T05:30:39.429Z,982.76
2019-03-05T05:31:39.393Z,982.71
2019-03-05T05:32:39.381Z,982.74
2019-03-05T05:33:39.368Z,982.68
2019-03-05T05:34:39.373Z,982.64
2019-03-05T05:35:39.375Z,982.81
2019-03-05T05:36:39.342Z,982.71
2019-03-05T05:37:39.329Z,982.74
2019-03-05T05:38:39.316Z,982.73
2019-03-05T05:39:39.307Z,982.73
2019-03-05T05:40:39.346Z,982.84
2019-03-05T05:41:39.284Z,982.86
2019-03-05T05:42:39.274Z,982.82
2019-03-05T05:43:39.270Z,982.76
2019-03-05T05:44:39.264Z,982.76
2019-03-05T05:45:39.243Z,982.82
2019-03-05T05:46:39.257Z,982.80
2019-03-05T05:47:39.222Z,982.80
2019-03-05T05:48:39.212Z,982.71
2019-03-05T05:49:39.204Z,982.77
2019-03-05T05:50:39.191Z,982.87
2019-03-05T05:51:39.207Z,982.80
2019-03-05T05:52:39.170Z,982.79
2019-03-05T05:53:39.165Z,982.83
2019-03-05T05:54:39.148Z,982.83
2019-03-05T05:55:39.140Z,982.73
2019-03-05T05:56:39.157Z,982.86
2019-03-05T05:57:39.132Z,982.93
2019-03-05T05:58:39.108Z,982.82
2019-03-05T05:59:39.100Z,982.78
2019-03-05T06:00:39.087Z,982.88
2019-03-05T06:01:39.101Z,982.85
2019-03-05T06:02:39.067Z,982.94
2019-03-05T06:03:39.055Z,982.89
2019-03-05T06:04:39.046Z,982.92
2019-03-05T06:05:39.035Z,982.92
2019-03-05T06:06:39.049Z,982.83
2019-03-05T06:07:39.015Z,982.85
2019-03-05T06:08:39.007Z,982.98
2019-03-05T06:09:38.993Z,982.88
2019-03-05T06:10:38.983Z,982.89
2019-03-05T06:11:39.000Z,982.93
2019-03-05T06:12:38.964Z,982.94
2019-03-05T06:13:38.959Z,982.92
2019-03-05T06:14:38.943Z,982.91
2019-03-05T06:15:38.938Z,983.00
2019-03-05T06:16:38.943Z,982.93
2019-03-05T06:17:38.911Z,982.98
2019-03-05T06:18:38.902Z,982.99
2019-03-05T06:19:38.888Z,982.96
2019-03-05T06:20:38.883Z,982.97
2019-03-05T06:21:38.892Z,982.98
2019-03-05T06:22:38.858Z,982.94
2019-03-05T06:23:38.849Z,982.90
2019-03-05T06:24:38.838Z,982.99
2019-03-05T06:25:38.829Z,983.02
2019-03-05T06:26:38.844Z,983.05
2019-03-05T06:27:38.806Z,982.93
2019-03-05T06:28:38.840Z,983.00
2019-03-05T06:29:38.787Z,982.87
2019-03-05T06:30:38.779Z,982.97
2019-03-05T06:31:38.767Z,982.90
2019-03-05T06:32:38.776Z,982.99
2019-03-05T06:33:38.744Z,982.97
2019-03-05T06:34:38.736Z,982.69
2019-03-05T06:35:38.726Z,982.98
2019-03-05T06:36:38.714Z,983.05
2019-03-05T06:37:38.730Z,982.95
2019-03-05T06:38:38.695Z,983.02
2019-03-05T06:39:38.684Z,983.04
2019-03-05T06:40:38.672Z,983.09
2019-03-05T06:41:38.661Z,983.03
2019-03-05T06:42:38.673Z,983.08
2019-03-05T06:43:38.639Z,983.12
2019-03-05T06:44:38.630Z,982.98
2019-03-05T06:45:38.624Z,983.08
2019-03-05T06:46:38.611Z,983.15
2019-03-05T06:47:38.620Z,983.25
2019-03-05T06:48:38.587Z,983.18
2019-03-05T06:49:38.578Z,983.15
2019-03-05T06:50:38.566Z,983.16
2019-03-05T06:51:38.561Z,983.26
2019-03-05T06:52:38.569Z,983.19
2019-03-05T06:53:38.536Z,983.12
2019-03-05T06:54:38.527Z,983.03
2019-03-05T06:55:38.514Z,983.27
2019-03-05T06:56:38.503Z,983.17
2019-03-05T06:57:38.516Z,983.19
2019-03-05T06:58:38.488Z,983.31
2019-03-05T06:59:38.473Z,983.21
2019-03-05T07:00:38.463Z,983.15
2019-03-05T07:01:38.451Z,983.22
2019-03-05T07:02:38.466Z,983.17
2019-03-05T07:03:38.431Z,983.22
2019-03-05T07:04:38.426Z,983.25
2019-03-05T07:05:38.415Z,983.18
2019-03-05T07:06:38.404Z,983.23
2019-03-05T07:07:38.411Z,983.33
2019-03-05T07:08:38.379Z,983.29
2019-03-05T07:09:38.371Z,983.22
2019-03-05T07:10:38.358Z,983.28
2019-03-05T07:11:38.349Z,983.34
2019-03-05T07:12:38.370Z,983.40
2019-03-05T07:13:38.327Z,983.41
2019-03-05T07:14:38.317Z,983.43
2019-03-05T07:15:38.316Z,983.37
2019-03-05T07:16:38.296Z,983.42
2019-03-05T07:17:38.285Z,983.48
2019-03-05T07:18:38.296Z,983.47
2019-03-05T07:19:38.270Z,983.57
2019-03-05T07:20:38.254Z,983.54
2019-03-05T07:21:38.243Z,983.50
2019-03-05T07:22:38.233Z,983.39
2019-03-05T07:23:38.252Z,983.50
2019-03-05T07:24:38.212Z,983.43
2019-03-05T07:25:38.202Z,983.26
2019-03-05T07:26:38.192Z,983.45
2019-03-05T07:27:38.188Z,983.52
2019-03-05T07:28:38.191Z,983.48
2019-03-05T07:29:38.161Z,983.47
2019-03-05T07:30:38.149Z,983.42
2019-03-05T07:31:38.139Z,983.57
2019-03-05T07:32:38.130Z,983.64
2019-03-05T07:33:38.145Z,983.52
2019-03-05T07:34:38.114Z,983.55
2019-03-05T07:35:38.097Z,983.55
2019-03-05T07:36:38.107Z,983.52
2019-03-05T07:37:38.077Z,983.39
2019-03-05T07:38:38.093Z,983.49
2019-03-05T07:39:38.056Z,983.48
2019-03-05T07:40:38.048Z,983.57
2019-03-05T07:41:38.034Z,983.49
2019-03-05T07:42:38.024Z,983.59
2019-03-05T07:43:38.095Z,983.63
2019-03-05T07:44:38.006Z,983.56
2019-03-05T07:45:37.993Z,983.66
2019-03-05T07:46:37.986Z,983.66
2019-03-05T07:47:37.973Z,983.73
2019-03-05T07:48:37.962Z,983.67
2019-03-05T07:49:43.768Z,983.62
2019-03-05T07:50:38.941Z,983.75
2019-03-05T07:51:37.933Z,983.62
2019-03-05T07:52:37.921Z,983.72
2019-03-05T07:53:37.910Z,983.73
2019-03-05T07:54:37.921Z,983.72
2019-03-05T07:55:37.891Z,983.78
2019-03-05T07:56:37.884Z,983.78
2019-03-05T07:57:37.869Z,983.77
2019-03-05T07:58:37.858Z,983.80
2019-03-05T07:59:37.874Z,983.80
2019-03-05T08:00:37.838Z,983.84
2019-03-05T08:01:37.829Z,983.82
2019-03-05T08:02:37.816Z,983.88
2019-03-05T08:03:37.807Z,983.83
2019-03-05T08:04:37.816Z,983.89
2019-03-05T08:05:37.785Z,983.97
2019-03-05T08:06:37.777Z,983.95
2019-03-05T08:07:37.769Z,983.93
2019-03-05T08:08:37.757Z,983.88
2019-03-05T08:09:37.768Z,983.87
2019-03-05T08:10:37.733Z,984.01
2019-03-05T08:11:37.725Z,983.87
2019-03-05T08:12:37.714Z,984.02
2019-03-05T08:13:37.704Z,984.01
2019-03-05T08:14:37.713Z,984.01
2019-03-05T08:15:37.695Z,983.98
2019-03-05T08:16:37.674Z,983.96
2019-03-05T08:17:37.662Z,984.03
2019-03-05T08:18:37.653Z,984.01
2019-03-05T08:19:37.676Z,984.02
2019-03-05T08:20:37.633Z,983.94
2019-03-05T08:21:37.620Z,984.04
2019-03-05T08:22:37.609Z,984.00
2019-03-05T08:23:37.597Z,983.93
2019-03-05T08:24:37.588Z,984.12
2019-03-05T08:25:37.599Z,984.08
2019-03-05T08:26:37.565Z,984.10
2019-03-05T08:27:37.558Z,984.10
2019-03-05T08:28:37.545Z,984.18
2019-03-05T08:29:37.543Z,984.15
2019-03-05T08:30:37.556Z,984.04
2019-03-05T08:31:37.515Z,984.24
2019-03-05T08:32:37.615Z,984.28
2019-03-05T08:33:37.509Z,984.22
2019-03-05T08:34:37.482Z,984.25
2019-03-05T08:35:37.494Z,984.25
2019-03-05T08:36:37.465Z,984.26
2019-03-05T08:37:37.453Z,984.25
2019-03-05T08:38:37.441Z,984.23
2019-03-05T08:39:37.432Z,984.32
2019-03-05T08:40:37.444Z,984.29
2019-03-05T08:41:37.410Z,984.26
2019-03-05T08:42:37.401Z,984.36
2019-03-05T08:43:37.398Z,984.33
2019-03-05T08:44:37.380Z,984.33
2019-03-05T08:45:37.392Z,984.51
2019-03-05T08:46:37.359Z,984.38
2019-03-05T08:47:37.347Z,984.42
2019-03-05T08:48:37.342Z,984.44
2019-03-05T08:49:37.327Z,984.36
2019-03-05T08:50:37.341Z,984.28
2019-03-05T08:51:37.308Z,984.49
2019-03-05T08:52:37.297Z,984.48
2019-03-05T08:53:37.285Z,984.44
2019-03-05T08:54:37.274Z,984.52
2019-03-05T08:55:37.298Z,984.52
2019-03-05T08:56:37.256Z,984.46
2019-03-05T08:57:37.243Z,984.48
2019-03-05T08:58:37.236Z,984.52
2019-03-05T08:59:37.223Z,984.52
2019-03-05T09:00:37.267Z,984.58
2019-03-05T09:01:37.227Z,984.48
2019-03-05T09:02:47.759Z,984.50
2019-03-05T09:03:38.180Z,984.59
2019-03-05T09:04:37.171Z,984.61
2019-03-05T09:05:37.161Z,984.50
2019-03-05T09:06:37.238Z,984.58
2019-03-05T09:07:37.138Z,984.67
2019-03-05T09:08:38.469Z,984.64
2019-03-05T09:09:37.119Z,984.67
2019-03-05T09:10:37.110Z,984.70
2019-03-05T09:11:37.122Z,984.67
2019-03-05T09:12:37.093Z,984.65
2019-03-05T09:13:37.081Z,984.78
2019-03-05T09:14:37.066Z,984.82
2019-03-05T09:15:37.055Z,984.65
2019-03-05T09:16:37.073Z,984.66
2019-03-05T09:17:37.036Z,984.69
2019-03-05T09:18:37.033Z,984.69
2019-03-05T09:19:37.013Z,984.73
2019-03-05T09:20:37.004Z,984.72
2019-03-05T09:21:37.015Z,984.70
2019-03-05T09:22:36.986Z,984.73
2019-03-05T09:23:36.973Z,984.65
2019-03-05T09:24:36.961Z,984.65
2019-03-05T09:25:36.951Z,984.69
2019-03-05T09:26:36.962Z,984.70
2019-03-05T09:27:36.930Z,984.67
2019-03-05T09:28:36.921Z,984.71
2019-03-05T09:29:36.916Z,984.71
2019-03-05T09:30:36.899Z,984.70
2019-03-05T09:31:36.909Z,984.69
2019-03-05T09:32:36.879Z,984.70
2019-03-05T09:33:36.869Z,984.69
2019-03-05T09:34:36.861Z,984.69
2019-03-05T09:35:36.850Z,984.68
2019-03-05T09:36:36.858Z,984.72
2019-03-05T09:37:36.827Z,984.85
2019-03-05T09:38:36.822Z,984.75
2019-03-05T09:39:36.842Z,984.73
2019-03-05T09:40:36.795Z,984.74
2019-03-05T09:41:36.817Z,984.73
2019-03-05T09:42:40.198Z,984.77
2019-03-05T09:43:36.764Z,984.76
2019-03-05T09:44:36.757Z,984.81
2019-03-05T09:45:36.745Z,984.86
2019-03-05T09:46:36.881Z,984.81
2019-03-05T09:47:36.750Z,984.83
2019-03-05T09:48:36.711Z,984.83
2019-03-05T09:49:36.701Z,984.85
2019-03-05T09:50:36.692Z,984.94
2019-03-05T09:51:36.682Z,984.84
2019-03-05T09:52:36.692Z,984.86
2019-03-05T09:53:36.661Z,984.85
2019-03-05T09:54:36.647Z,984.88
2019-03-05T09:55:36.638Z,984.94
2019-03-05T09:56:36.629Z,984.88
2019-03-05T09:57:36.644Z,984.87
2019-03-05T09:58:36.612Z,984.84
2019-03-05T09:59:36.596Z,984.81
2019-03-05T10:00:36.587Z,984.82
2019-03-05T10:01:36.575Z,984.90
2019-03-05T10:02:36.590Z,984.86
2019-03-05T10:03:36.558Z,984.83
2019-03-05T10:04:36.544Z,984.82
2019-03-05T10:05:36.537Z,984.84
2019-03-05T10:06:36.524Z,984.83
2019-03-05T10:07:36.538Z,984.87
2019-03-05T10:08:36.505Z,984.89
2019-03-05T10:09:36.493Z,984.90
2019-03-05T10:10:36.483Z,984.84
2019-03-05T10:11:36.475Z,984.86
2019-03-05T10:12:36.483Z,984.85
2019-03-05T10:13:36.458Z,984.83
2019-03-05T10:14:36.444Z,984.88
2019-03-05T10:15:36.430Z,984.83
2019-03-05T10:16:36.420Z,984.89
2019-03-05T10:17:38.160Z,984.83
2019-03-05T10:18:36.399Z,984.81
2019-03-05T10:19:38.466Z,984.85
2019-03-05T10:20:36.383Z,984.82
2019-03-05T10:21:45.922Z,984.86
2019-03-05T10:22:37.378Z,984.90
2019-03-05T10:23:36.347Z,984.87
2019-03-05T10:24:36.338Z,984.89
2019-03-05T10:25:36.329Z,984.85
2019-03-05T10:26:36.321Z,984.92
2019-03-05T10:27:36.331Z,984.85
2019-03-05T10:28:36.294Z,984.93
2019-03-05T10:29:36.284Z,984.91
2019-03-05T10:30:36.273Z,984.91
2019-03-05T10:31:36.264Z,984.94
2019-03-05T10:32:36.277Z,984.92
2019-03-05T10:33:36.243Z,984.92
2019-03-05T10:34:36.233Z,984.93
2019-03-05T10:35:36.227Z,984.90
2019-03-05T10:36:36.214Z,984.94
2019-03-05T10:37:36.221Z,984.95
2019-03-05T10:38:36.190Z,984.88
2019-03-05T10:39:36.179Z,984.97
2019-03-05T10:40:36.169Z,984.97
2019-03-05T10:41:36.158Z,984.92
2019-03-05T10:42:36.188Z,984.95
2019-03-05T10:43:36.139Z,984.93
2019-03-05T10:44:36.165Z,984.94
2019-03-05T10:45:36.118Z,984.98
2019-03-05T10:46:36.105Z,984.97
2019-03-05T10:47:36.096Z,984.94
2019-03-05T10:48:36.106Z,985.05
2019-03-05T10:49:36.076Z,985.02
2019-03-05T10:50:36.070Z,984.99
2019-03-05T10:51:36.054Z,985.05
2019-03-05T10:52:36.045Z,985.06
2019-03-05T10:53:36.057Z,985.09
2019-03-05T10:54:36.026Z,985.04
2019-03-05T10:55:36.015Z,985.04
2019-03-05T10:56:36.003Z,984.98
2019-03-05T10:57:35.992Z,985.03
2019-03-05T10:58:36.005Z,985.04
2019-03-05T10:59:35.973Z,985.12
2019-03-05T11:00:35.961Z,985.16
2019-03-05T11:01:35.951Z,985.17
2019-03-05T11:02:35.939Z,985.11
2019-03-05T11:03:35.955Z,985.14
2019-03-05T11:04:45.433Z,985.17
2019-03-05T11:05:36.910Z,985.05
2019-03-05T11:06:35.899Z,985.15
2019-03-05T11:07:35.887Z,985.04
2019-03-05T11:08:35.900Z,985.09
2019-03-05T11:09:35.866Z,985.02
2019-03-05T11:10:35.860Z,985.10
2019-03-05T11:11:35.846Z,985.07
2019-03-05T11:12:35.834Z,985.05
2019-03-05T11:13:35.847Z,985.13
2019-03-05T11:14:35.871Z,985.09
2019-03-05T11:15:35.804Z,985.16
2019-03-05T11:16:35.791Z,985.09
2019-03-05T11:17:35.781Z,985.12
2019-03-05T11:18:35.796Z,985.10
2019-03-05T11:19:35.761Z,985.08
2019-03-05T11:20:35.749Z,985.01
2019-03-05T11:21:35.741Z,985.03
2019-03-05T11:22:35.754Z,985.10
2019-03-05T11:23:35.744Z,985.05
2019-03-05T11:24:35.707Z,985.09
2019-03-05T11:25:35.703Z,985.05
2019-03-05T11:26:35.688Z,985.03
2019-03-05T11:27:35.676Z,985.09
2019-03-05T11:28:35.690Z,985.11
2019-03-05T11:29:35.655Z,985.21
2019-03-05T11:30:36.594Z,985.11
2019-03-05T11:31:35.638Z,985.16
2019-03-05T11:32:35.624Z,985.14
2019-03-05T11:33:35.643Z,985.20
2019-03-05T11:34:35.603Z,985.15
2019-03-05T11:35:35.593Z,985.21
2019-03-05T11:36:35.589Z,985.28
2019-03-05T11:37:35.576Z,985.19
2019-03-05T11:38:35.569Z,985.33
2019-03-05T11:39:35.573Z,985.29
2019-03-05T11:40:35.543Z,985.39
2019-03-05T11:41:35.531Z,985.25
2019-03-05T11:42:35.521Z,985.25
2019-03-05T11:43:35.523Z,985.21
2019-03-05T11:44:35.531Z,985.28
2019-03-05T11:45:35.488Z,985.25
2019-03-05T11:46:35.479Z,985.25
2019-03-05T11:47:35.465Z,985.26
2019-03-05T11:48:35.457Z,985.25
2019-03-05T11:49:35.468Z,985.38
2019-03-05T11:50:35.436Z,985.39
2019-03-05T11:51:35.425Z,985.39
2019-03-05T11:52:35.413Z,985.37
2019-03-05T11:53:35.406Z,985.56
2019-03-05T11:54:35.416Z,985.48
2019-03-05T11:55:35.383Z,985.45
2019-03-05T11:56:35.372Z,985.37
2019-03-05T11:57:35.362Z,985.42
2019-03-05T11:58:35.353Z,985.77
2019-03-05T11:59:35.363Z,985.68
2019-03-05T12:00:35.334Z,985.62
2019-03-05T12:01:35.321Z,985.33
2019-03-05T12:02:35.313Z,985.33
2019-03-05T12:03:35.305Z,985.48
2019-03-05T12:04:35.312Z,985.42
2019-03-05T12:05:35.282Z,985.44
2019-03-05T12:06:35.267Z,985.82
2019-03-05T12:07:35.258Z,985.85
2019-03-05T12:08:35.254Z,985.76
2019-03-05T12:09:35.260Z,985.89
2019-03-05T12:10:35.226Z,985.45
2019-03-05T12:11:35.223Z,985.51
2019-03-05T12:12:35.205Z,985.60
2019-03-05T12:13:35.193Z,985.76
2019-03-05T12:14:35.205Z,985.68
2019-03-05T12:15:35.171Z,985.77
2019-03-05T12:16:35.163Z,986.01
2019-03-05T12:17:35.150Z,985.90
2019-03-05T12:18:35.140Z,985.92
2019-03-05T12:19:35.158Z,985.82
2019-03-05T12:20:35.123Z,985.77
2019-03-05T12:21:35.118Z,985.89
2019-03-05T12:22:35.097Z,985.88
2019-03-05T12:23:35.088Z,985.94
2019-03-05T12:24:35.099Z,985.79
2019-03-05T12:25:36.019Z,985.53
2019-03-05T12:26:35.057Z,985.36
2019-03-05T12:27:36.031Z,985.47
2019-03-05T12:28:35.032Z,985.40